createdAt,value
2018-08-07T00:00:24.733Z,79.9
2018-08-07T00:01:05.477Z,79.35
2018-08-07T00:01:46.201Z,79.84
2018-08-07T00:02:26.946Z,79.45
2018-08-07T00:03:07.702Z,80
2018-08-07T00:03:48.554Z,79.9
2018-08-07T00:04:29.417Z,79.61
2018-08-07T00:05:10.188Z,79.8
2018-08-07T00:05:50.913Z,80.1
2018-08-07T00:06:31.768Z,80
2018-08-07T00:07:12.497Z,79.8
2018-08-07T00:07:53.199Z,80.98
2018-08-07T00:08:33.933Z,80.68
2018-08-07T00:09:14.672Z,80.64
2018-08-07T00:09:55.494Z,80.88
2018-08-07T00:10:36.273Z,80.88
2018-08-07T00:11:17.151Z,80.78
2018-08-07T00:11:57.895Z,80.49
2018-08-07T00:12:38.646Z,80.64
2018-08-07T00:13:19.407Z,80.64
2018-08-07T00:14:00.228Z,80.68
2018-08-07T00:14:41.022Z,80.68
2018-08-07T00:15:21.757Z,80.88
2018-08-07T00:16:02.518Z,81.13
2018-08-07T00:16:43.382Z,81.23
2018-08-07T00:17:24.223Z,81.26
2018-08-07T00:18:04.978Z,80.74
2018-08-07T00:18:45.703Z,80.68
2018-08-07T00:19:26.479Z,80.68
2018-08-07T00:20:07.269Z,80.93
2018-08-07T00:20:48.070Z,81.07
2018-08-07T00:21:28.779Z,81.42
2018-08-07T00:22:09.550Z,80.58
2018-08-07T00:22:50.373Z,80.68
2018-08-07T00:23:31.132Z,80.98
2018-08-07T00:24:11.848Z,81.81
2018-08-07T00:24:52.631Z,82.59
2018-08-07T00:25:33.457Z,81.71
2018-08-07T00:26:14.264Z,82.69
2018-08-07T00:26:55.021Z,81.42
2018-08-07T00:27:35.726Z,81.71
2018-08-07T00:28:16.472Z,81.65
2018-08-07T00:28:57.253Z,81.75
2018-08-07T00:29:38.103Z,81.95
2018-08-07T00:30:18.891Z,82.5
2018-08-07T00:30:59.741Z,81.81
2018-08-07T00:31:40.522Z,81.75
2018-08-07T00:32:21.297Z,81.56
2018-08-07T00:33:02.106Z,81.46
2018-08-07T00:33:42.828Z,80.98
2018-08-07T00:34:23.557Z,81.95
2018-08-07T00:35:04.301Z,82.59
2018-08-07T00:35:45.069Z,81.52
2018-08-07T00:36:25.828Z,81.56
2018-08-07T00:37:06.577Z,81.56
2018-08-07T00:37:47.402Z,81.26
2018-08-07T00:38:28.217Z,81.46
2018-08-07T00:39:09.007Z,82.63
2018-08-07T00:39:49.834Z,81.81
2018-08-07T00:40:30.583Z,81.75
2018-08-07T00:41:11.408Z,81.75
2018-08-07T00:41:52.253Z,81.17
2018-08-07T00:42:32.988Z,81.17
2018-08-07T00:43:13.700Z,80.88
2018-08-07T00:43:54.408Z,80.78
2018-08-07T00:44:35.244Z,80.58
2018-08-07T00:45:16.071Z,81.17
2018-08-07T00:45:56.880Z,81.26
2018-08-07T00:46:37.663Z,81.17
2018-08-07T00:47:18.404Z,82.4
2018-08-07T00:47:59.184Z,82.89
2018-08-07T00:48:39.963Z,82.69
2018-08-07T00:49:20.823Z,82.5
2018-08-07T00:50:01.624Z,82.2
2018-08-07T00:50:42.303Z,81.91
2018-08-07T00:51:23.114Z,82.89
2018-08-07T00:52:03.942Z,83.37
2018-08-07T00:52:44.768Z,82.75
2018-08-07T00:53:25.460Z,82.98
2018-08-07T00:54:06.238Z,82.98
2018-08-07T00:54:47.068Z,82.89
2018-08-07T00:55:27.792Z,83.04
2018-08-07T00:56:08.542Z,82.35
2018-08-07T00:56:49.331Z,82.79
2018-08-07T00:57:30.128Z,82.2
2018-08-07T00:58:10.920Z,82.3
2018-08-07T00:58:51.670Z,82.1
2018-08-07T00:59:32.479Z,81.91
2018-08-07T01:00:13.373Z,81.71
2018-08-07T01:00:54.173Z,81.71
2018-08-07T01:01:34.957Z,81.71
2018-08-07T01:02:15.705Z,81.42
2018-08-07T01:02:56.453Z,81.71
2018-08-07T01:03:37.200Z,81.81
2018-08-07T01:04:18.017Z,82.1
2018-08-07T01:04:58.849Z,81.52
2018-08-07T01:05:39.664Z,81.23
2018-08-07T01:06:20.360Z,81.56
2018-08-07T01:07:01.127Z,81.81
2018-08-07T01:07:41.948Z,81.52
2018-08-07T01:08:22.745Z,82.01
2018-08-07T01:09:03.482Z,81.71
2018-08-07T01:09:44.172Z,81.32
2018-08-07T01:10:24.977Z,81.26
2018-08-07T01:11:05.802Z,80.74
2018-08-07T01:11:46.583Z,80.83
2018-08-07T01:12:27.382Z,81.03
2018-08-07T01:13:08.105Z,80.83
2018-08-07T01:13:48.789Z,80.44
2018-08-07T01:14:29.504Z,80.54
2018-08-07T01:15:10.311Z,80.88
2018-08-07T01:15:51.136Z,80.83
2018-08-07T01:16:31.841Z,80.78
2018-08-07T01:17:12.680Z,80.49
2018-08-07T01:17:53.457Z,79.9
2018-08-07T01:18:34.261Z,79.9
2018-08-07T01:19:15.001Z,79.8
2018-08-07T01:19:55.756Z,79.9
2018-08-07T01:20:36.491Z,79.37
2018-08-07T01:21:19.883Z,79.76
2018-08-07T01:22:00.697Z,80.05
2018-08-07T01:22:41.457Z,79.57
2018-08-07T01:23:22.268Z,80.05
2018-08-07T01:24:03.028Z,80.44
2018-08-07T01:24:43.823Z,80.83
2018-08-07T01:25:27.438Z,80.54
2018-08-07T01:26:08.174Z,80.51
2018-08-07T01:26:48.971Z,81.52
2018-08-07T01:27:29.689Z,80.54
2018-08-07T01:28:10.483Z,80.54
2018-08-07T01:28:51.294Z,80.51
2018-08-07T01:29:32.065Z,80.93
2018-08-07T01:30:12.868Z,80.44
2018-08-07T01:30:53.710Z,80.54
2018-08-07T01:31:34.479Z,80.29
2018-08-07T01:32:15.271Z,80.25
2018-08-07T01:32:55.978Z,79.9
2018-08-07T01:33:36.792Z,80.1
2018-08-07T01:34:17.562Z,80.19
2018-08-07T01:34:58.262Z,80.19
2018-08-07T01:35:38.995Z,80
2018-08-07T01:36:19.743Z,79.8
2018-08-07T01:37:00.520Z,79.86
2018-08-07T01:37:41.392Z,80.83
2018-08-07T01:38:22.233Z,80.64
2018-08-07T01:39:02.971Z,79.96
2018-08-07T01:39:43.720Z,80.64
2018-08-07T01:40:24.448Z,81.09
2018-08-07T01:41:05.217Z,81.67
2018-08-07T01:41:46.057Z,81.96
2018-08-07T01:42:26.785Z,81.96
2018-08-07T01:43:07.534Z,81.38
2018-08-07T01:43:48.356Z,81.91
2018-08-07T01:44:29.096Z,81.67
2018-08-07T01:45:09.884Z,82.16
2018-08-07T01:45:50.622Z,82.26
2018-08-07T01:46:31.365Z,81.48
2018-08-07T01:47:12.118Z,81.48
2018-08-07T01:47:52.905Z,81.96
2018-08-07T01:48:33.681Z,82.45
2018-08-07T01:49:14.481Z,82.65
2018-08-07T01:49:55.214Z,81.87
2018-08-07T01:50:35.946Z,82.65
2018-08-07T01:51:16.775Z,82.84
2018-08-07T01:51:57.498Z,82.26
2018-08-07T01:52:38.209Z,82.16
2018-08-07T01:53:18.982Z,82.4
2018-08-07T01:53:59.749Z,82.75
2018-08-07T01:54:40.528Z,82.4
2018-08-07T01:55:21.356Z,81.91
2018-08-07T01:56:04.120Z,81.71
2018-08-07T01:56:44.861Z,82.98
2018-08-07T01:57:25.590Z,82.69
2018-08-07T01:58:06.362Z,82.89
2018-08-07T01:58:47.199Z,82.5
2018-08-07T01:59:27.937Z,83.27
2018-08-07T02:00:08.643Z,82.69
2018-08-07T02:00:49.471Z,82.5
2018-08-07T02:01:30.269Z,81.71
2018-08-07T02:02:11.086Z,82.69
2018-08-07T02:02:51.820Z,81.71
2018-08-07T02:03:32.601Z,81.91
2018-08-07T02:04:13.448Z,81.42
2018-08-07T02:04:54.250Z,81.32
2018-08-07T02:05:34.975Z,81.65
2018-08-07T02:06:15.734Z,81.71
2018-08-07T02:06:56.474Z,82.98
2018-08-07T02:07:37.284Z,83.47
2018-08-07T02:08:18.001Z,83.47
2018-08-07T02:08:58.769Z,83.08
2018-08-07T02:09:39.611Z,83.08
2018-08-07T02:10:20.432Z,82.79
2018-08-07T02:11:01.212Z,82.98
2018-08-07T02:11:41.945Z,82.98
2018-08-07T02:12:22.669Z,82.4
2018-08-07T02:13:03.392Z,82.89
2018-08-07T02:13:44.219Z,82.63
2018-08-07T02:14:25.017Z,82.5
2018-08-07T02:15:05.888Z,82.43
2018-08-07T02:15:46.629Z,82.53
2018-08-07T02:16:27.374Z,81.56
2018-08-07T02:17:08.174Z,81.56
2018-08-07T02:17:48.966Z,81.95
2018-08-07T02:18:29.746Z,81.85
2018-08-07T02:19:10.457Z,83.56
2018-08-07T02:19:51.200Z,83.76
2018-08-07T02:20:32.064Z,83.92
2018-08-07T02:21:12.862Z,83.95
2018-08-07T02:21:53.672Z,84.64
2018-08-07T02:22:34.403Z,84.5
2018-08-07T02:23:15.121Z,84.64
2018-08-07T02:23:55.823Z,84.59
2018-08-07T02:24:36.655Z,84.05
2018-08-07T02:25:17.397Z,83.76
2018-08-07T02:25:58.166Z,83.86
2018-08-07T02:26:38.988Z,84.44
2018-08-07T02:27:19.795Z,84.15
2018-08-07T02:28:00.669Z,84.74
2018-08-07T02:28:41.405Z,83.76
2018-08-07T02:29:22.168Z,84.54
2018-08-07T02:30:02.906Z,84.69
2018-08-07T02:30:43.726Z,84.59
2018-08-07T02:31:24.572Z,85.18
2018-08-07T02:32:05.359Z,85.77
2018-08-07T02:32:46.167Z,86.06
2018-08-07T02:33:26.868Z,85.77
2018-08-07T02:34:07.660Z,85.96
2018-08-07T02:34:48.513Z,85.57
2018-08-07T02:35:29.282Z,85.86
2018-08-07T02:36:10.085Z,85.77
2018-08-07T02:36:50.846Z,84.79
2018-08-07T02:37:31.645Z,85.18
2018-08-07T02:38:12.470Z,85.08
2018-08-07T02:38:53.209Z,84.5
2018-08-07T02:39:33.985Z,85.08
2018-08-07T02:40:14.828Z,84.79
2018-08-07T02:40:55.675Z,85.18
2018-08-07T02:41:36.450Z,84.89
2018-08-07T02:42:17.196Z,84.79
2018-08-07T02:42:58.025Z,84.4
2018-08-07T02:43:38.841Z,84.69
2018-08-07T02:44:19.571Z,85.08
2018-08-07T02:45:00.292Z,84.59
2018-08-07T02:45:40.996Z,84.5
2018-08-07T02:46:21.821Z,84.4
2018-08-07T02:47:02.655Z,85.18
2018-08-07T02:47:43.470Z,85.18
2018-08-07T02:48:24.249Z,85.18
2018-08-07T02:49:05.046Z,85.47
2018-08-07T02:49:45.848Z,85.18
2018-08-07T02:50:26.640Z,85.28
2018-08-07T02:51:07.461Z,84.99
2018-08-07T02:51:48.200Z,84.79
2018-08-07T02:52:28.940Z,84.99
2018-08-07T02:53:09.787Z,84.89
2018-08-07T02:53:50.584Z,84.4
2018-08-07T02:54:31.427Z,84.59
2018-08-07T02:55:12.153Z,84.99
2018-08-07T02:55:54.873Z,85.08
2018-08-07T02:56:35.650Z,84.79
2018-08-07T02:57:16.426Z,84.59
2018-08-07T02:57:57.153Z,84.69
2018-08-07T02:58:37.913Z,84.69
2018-08-07T02:59:18.713Z,84.5
2018-08-07T02:59:59.526Z,84.21
2018-08-07T03:00:40.301Z,85.18
2018-08-07T03:01:21.129Z,85.18
2018-08-07T03:02:01.903Z,85.38
2018-08-07T03:02:42.711Z,84.89
2018-08-07T03:03:23.558Z,85.08
2018-08-07T03:04:04.286Z,84.79
2018-08-07T03:04:45.022Z,84.79
2018-08-07T03:05:25.751Z,84.5
2018-08-07T03:06:06.586Z,84.01
2018-08-07T03:06:47.414Z,83.86
2018-08-07T03:07:28.192Z,83.56
2018-08-07T03:08:08.899Z,83.37
2018-08-07T03:08:49.787Z,83.08
2018-08-07T03:09:30.587Z,83.27
2018-08-07T03:10:11.327Z,83.37
2018-08-07T03:10:52.024Z,83.08
2018-08-07T03:11:32.821Z,83.27
2018-08-07T03:12:13.609Z,83.18
2018-08-07T03:12:54.395Z,83.37
2018-08-07T03:13:35.154Z,83.37
2018-08-07T03:14:15.927Z,83.95
2018-08-07T03:14:56.741Z,83.86
2018-08-07T03:15:37.545Z,83.76
2018-08-07T03:16:18.362Z,83.76
2018-08-07T03:16:59.112Z,83.86
2018-08-07T03:17:39.921Z,83.18
2018-08-07T03:18:20.695Z,83.37
2018-08-07T03:19:01.410Z,83.08
2018-08-07T03:19:42.147Z,83.56
2018-08-07T03:20:22.893Z,83.47
2018-08-07T03:21:03.740Z,82.79
2018-08-07T03:21:44.548Z,82.98
2018-08-07T03:22:27.353Z,82.89
2018-08-07T03:23:08.166Z,83.08
2018-08-07T03:23:48.954Z,82.98
2018-08-07T03:24:29.715Z,83.18
2018-08-07T03:25:10.498Z,82.89
2018-08-07T03:25:51.327Z,82.69
2018-08-07T03:26:32.087Z,82.82
2018-08-07T03:27:12.817Z,83.12
2018-08-07T03:27:53.631Z,83.08
2018-08-07T03:28:34.472Z,83.27
2018-08-07T03:29:15.334Z,83.86
2018-08-07T03:29:56.059Z,83.18
2018-08-07T03:30:36.799Z,83.08
2018-08-07T03:31:17.529Z,83.37
2018-08-07T03:31:58.364Z,83.76
2018-08-07T03:32:39.148Z,83.27
2018-08-07T03:33:19.955Z,83.66
2018-08-07T03:34:00.737Z,83.95
2018-08-07T03:34:41.514Z,83.72
2018-08-07T03:35:22.339Z,84.21
2018-08-07T03:36:04.840Z,83.76
2018-08-07T03:36:45.604Z,83.95
2018-08-07T03:37:26.343Z,83.47
2018-08-07T03:38:07.070Z,83.47
2018-08-07T03:38:47.887Z,83.56
2018-08-07T03:39:28.734Z,82.98
2018-08-07T03:40:09.559Z,82.98
2018-08-07T03:40:50.369Z,83.08
2018-08-07T03:41:31.114Z,83.22
2018-08-07T03:42:11.849Z,83.27
2018-08-07T03:42:52.639Z,82.98
2018-08-07T03:43:33.447Z,82.82
2018-08-07T03:44:14.205Z,82.89
2018-08-07T03:44:55.007Z,83.02
2018-08-07T03:45:35.788Z,82.63
2018-08-07T03:46:16.631Z,82.89
2018-08-07T03:46:57.457Z,83.08
2018-08-07T03:47:38.178Z,82.89
2018-08-07T03:48:19.024Z,82.69
2018-08-07T03:48:59.825Z,82.59
2018-08-07T03:49:40.554Z,83.27
2018-08-07T03:50:21.332Z,83.12
2018-08-07T03:51:02.051Z,83.51
2018-08-07T03:51:42.895Z,82.98
2018-08-07T03:52:23.715Z,83.27
2018-08-07T03:53:04.483Z,83.47
2018-08-07T03:53:45.289Z,83.37
2018-08-07T03:54:26.087Z,83.08
2018-08-07T03:55:06.897Z,82.89
2018-08-07T03:55:47.662Z,83.08
2018-08-07T03:56:28.415Z,83.18
2018-08-07T03:57:09.167Z,83.08
2018-08-07T03:57:49.954Z,83.51
2018-08-07T03:58:30.772Z,82.89
2018-08-07T03:59:11.687Z,82.63
2018-08-07T03:59:52.409Z,82.59
2018-08-07T04:00:33.130Z,82.1
2018-08-07T04:01:13.930Z,82.43
2018-08-07T04:01:54.720Z,82.53
2018-08-07T04:02:35.453Z,82.34
2018-08-07T04:03:16.168Z,82.24
2018-08-07T04:03:56.913Z,82.63
2018-08-07T04:04:37.722Z,82.63
2018-08-07T04:05:18.566Z,82.34
2018-08-07T04:05:59.357Z,82.4
2018-08-07T04:06:40.185Z,82.89
2018-08-07T04:07:20.892Z,82.5
2018-08-07T04:08:01.644Z,82.82
2018-08-07T04:08:42.399Z,82.34
2018-08-07T04:09:23.200Z,81.75
2018-08-07T04:10:03.992Z,82.14
2018-08-07T04:10:44.731Z,81.75
2018-08-07T04:11:25.505Z,81.85
2018-08-07T04:12:06.341Z,82.04
2018-08-07T04:12:47.151Z,81.95
2018-08-07T04:13:27.893Z,81.75
2018-08-07T04:14:08.607Z,81.85
2018-08-07T04:14:49.409Z,81.95
2018-08-07T04:15:30.161Z,81.56
2018-08-07T04:16:11.016Z,82.34
2018-08-07T04:16:51.785Z,81.95
2018-08-07T04:17:32.611Z,81.65
2018-08-07T04:18:13.354Z,81.85
2018-08-07T04:18:54.161Z,81.85
2018-08-07T04:19:34.978Z,82.14
2018-08-07T04:20:15.719Z,81.56
2018-08-07T04:20:56.469Z,81.85
2018-08-07T04:21:37.194Z,81.75
2018-08-07T04:22:17.999Z,81.65
2018-08-07T04:22:58.785Z,81.75
2018-08-07T04:23:39.550Z,81.95
2018-08-07T04:24:20.330Z,81.95
2018-08-07T04:25:01.224Z,81.85
2018-08-07T04:25:42.072Z,81.65
2018-08-07T04:26:22.881Z,81.95
2018-08-07T04:27:03.640Z,81.56
2018-08-07T04:27:44.444Z,81.46
2018-08-07T04:28:25.257Z,81.26
2018-08-07T04:29:05.996Z,81.17
2018-08-07T04:29:46.739Z,81.17
2018-08-07T04:30:27.503Z,81.26
2018-08-07T04:31:08.290Z,81.36
2018-08-07T04:31:49.133Z,81.17
2018-08-07T04:32:29.969Z,81.07
2018-08-07T04:33:10.709Z,81.17
2018-08-07T04:33:51.449Z,81.07
2018-08-07T04:34:32.224Z,81.36
2018-08-07T04:35:12.958Z,80.58
2018-08-07T04:35:53.787Z,80.98
2018-08-07T04:36:34.504Z,81.26
2018-08-07T04:37:15.297Z,80.58
2018-08-07T04:37:56.133Z,80.98
2018-08-07T04:38:36.896Z,81.07
2018-08-07T04:39:17.732Z,80.78
2018-08-07T04:39:58.444Z,80.58
2018-08-07T04:40:39.179Z,81.46
2018-08-07T04:41:19.948Z,80.98
2018-08-07T04:42:00.770Z,80.58
2018-08-07T04:42:41.612Z,80.78
2018-08-07T04:43:22.482Z,80.58
2018-08-07T04:44:03.199Z,80.58
2018-08-07T04:44:43.966Z,80.78
2018-08-07T04:45:24.816Z,80.68
2018-08-07T04:46:05.544Z,80.68
2018-08-07T04:46:46.268Z,80.68
2018-08-07T04:47:27.062Z,80.68
2018-08-07T04:48:07.828Z,80.88
2018-08-07T04:48:48.724Z,79.9
2018-08-07T04:49:29.523Z,79.9
2018-08-07T04:50:10.390Z,80.39
2018-08-07T04:50:51.162Z,80.68
2018-08-07T04:51:31.925Z,80.68
2018-08-07T04:52:12.693Z,80.19
2018-08-07T04:52:53.495Z,80.58
2018-08-07T04:53:34.312Z,80
2018-08-07T04:54:15.085Z,79.9
2018-08-07T04:54:55.883Z,80.29
2018-08-07T04:55:36.732Z,80.19
2018-08-07T04:56:17.544Z,80.49
2018-08-07T04:56:58.281Z,80.1
2018-08-07T04:57:39.028Z,80.58
2018-08-07T04:58:19.821Z,80.39
2018-08-07T04:59:00.647Z,80.29
2018-08-07T04:59:41.398Z,79.9
2018-08-07T05:00:22.108Z,80.58
2018-08-07T05:01:02.852Z,80.39
2018-08-07T05:01:43.662Z,79.51
2018-08-07T05:02:24.390Z,79.51
2018-08-07T05:03:05.166Z,79.9
2018-08-07T05:03:46.003Z,80.19
2018-08-07T05:04:26.880Z,79.9
2018-08-07T05:05:07.756Z,79.9
2018-08-07T05:05:48.485Z,79.9
2018-08-07T05:06:29.237Z,79.51
2018-08-07T05:07:09.966Z,79.61
2018-08-07T05:07:50.739Z,79.41
2018-08-07T05:08:31.582Z,79.41
2018-08-07T05:09:12.397Z,79.71
2018-08-07T05:09:53.178Z,79.61
2018-08-07T05:10:34.016Z,79.61
2018-08-07T05:11:14.770Z,79.22
2018-08-07T05:11:55.583Z,79.41
2018-08-07T05:12:36.338Z,78.63
2018-08-07T05:13:17.097Z,79.61
2018-08-07T05:13:57.855Z,79.41
2018-08-07T05:14:38.667Z,79.12
2018-08-07T05:15:19.442Z,79.51
2018-08-07T05:16:00.170Z,79.02
2018-08-07T05:16:40.982Z,79.12
2018-08-07T05:17:21.805Z,79.12
2018-08-07T05:18:02.626Z,79.32
2018-08-07T05:18:43.369Z,79.22
2018-08-07T05:19:24.108Z,78.92
2018-08-07T05:20:04.936Z,79.02
2018-08-07T05:20:46.009Z,78.83
2018-08-07T05:21:26.845Z,78.63
2018-08-07T05:22:07.635Z,78.83
2018-08-07T05:22:48.379Z,78.92
2018-08-07T05:23:29.216Z,77.85
2018-08-07T05:24:10.032Z,77.66
2018-08-07T05:24:50.870Z,78.44
2018-08-07T05:25:31.601Z,78.53
2018-08-07T05:26:12.363Z,78.24
2018-08-07T05:26:53.142Z,78.34
2018-08-07T05:27:33.969Z,78.63
2018-08-07T05:28:14.772Z,78.44
2018-08-07T05:28:55.539Z,78.44
2018-08-07T05:29:36.381Z,78.34
2018-08-07T05:30:17.218Z,78.53
2018-08-07T05:30:58.080Z,78.14
2018-08-07T05:31:38.836Z,78.14
2018-08-07T05:32:19.638Z,78.24
2018-08-07T05:33:00.489Z,78.24
2018-08-07T05:33:41.285Z,77.46
2018-08-07T05:34:22.040Z,77.85
2018-08-07T05:35:02.813Z,78.14
2018-08-07T05:35:43.599Z,78.14
2018-08-07T05:36:24.418Z,78.24
2018-08-07T05:37:05.467Z,77.85
2018-08-07T05:37:46.280Z,77.95
2018-08-07T05:38:27.131Z,77.98
2018-08-07T05:39:07.906Z,78.18
2018-08-07T05:39:48.776Z,77.66
2018-08-07T05:40:29.529Z,77.98
2018-08-07T05:41:10.285Z,77.89
2018-08-07T05:41:51.049Z,77.59
2018-08-07T05:42:32.006Z,77.59
2018-08-07T05:43:12.706Z,77.5
2018-08-07T05:43:53.560Z,77.59
2018-08-07T05:44:34.332Z,77.69
2018-08-07T05:45:15.055Z,77.11
2018-08-07T05:45:55.868Z,77.69
2018-08-07T05:46:36.698Z,77.01
2018-08-07T05:47:17.466Z,77.59
2018-08-07T05:47:58.221Z,77.2
2018-08-07T05:48:38.960Z,77.2
2018-08-07T05:49:19.814Z,77.11
2018-08-07T05:50:00.733Z,77.2
2018-08-07T05:50:41.696Z,77.4
2018-08-07T05:51:22.288Z,77.4
2018-08-07T05:52:03.001Z,76.72
2018-08-07T05:52:43.808Z,77.4
2018-08-07T05:53:24.565Z,77.5
2018-08-07T05:54:05.423Z,77.4
2018-08-07T05:54:46.203Z,77.2
2018-08-07T05:55:26.963Z,77.01
2018-08-07T05:56:07.778Z,76.62
2018-08-07T05:56:48.543Z,77.3
2018-08-07T05:57:29.374Z,76.42
2018-08-07T05:58:10.165Z,76.48
2018-08-07T05:58:50.941Z,77.07
2018-08-07T05:59:31.571Z,77.2
2018-08-07T06:00:12.381Z,77.4
2018-08-07T06:00:53.169Z,76.91
2018-08-07T06:01:33.990Z,77.4
2018-08-07T06:02:14.731Z,77.3
2018-08-07T06:02:55.517Z,77.3
2018-08-07T06:03:36.373Z,77.3
2018-08-07T06:04:17.077Z,76.81
2018-08-07T06:04:57.802Z,76.72
2018-08-07T06:05:38.551Z,77.11
2018-08-07T06:06:19.415Z,76.62
2018-08-07T06:07:00.294Z,76.52
2018-08-07T06:07:41.097Z,76.91
2018-08-07T06:08:21.866Z,76.72
2018-08-07T06:09:02.703Z,76.32
2018-08-07T06:09:43.477Z,76.91
2018-08-07T06:10:24.307Z,76.81
2018-08-07T06:11:05.039Z,76.91
2018-08-07T06:11:45.811Z,76.42
2018-08-07T06:12:26.643Z,76.23
2018-08-07T06:13:07.395Z,76.52
2018-08-07T06:13:48.123Z,76.23
2018-08-07T06:14:28.873Z,76.52
2018-08-07T06:15:09.702Z,76.72
2018-08-07T06:15:50.570Z,76.42
2018-08-07T06:16:31.396Z,77.11
2018-08-07T06:17:12.162Z,77.85
2018-08-07T06:17:52.938Z,78.24
2018-08-07T06:18:33.684Z,79.47
2018-08-07T06:19:14.438Z,80.05
2018-08-07T06:19:55.246Z,80.51
2018-08-07T06:20:35.943Z,80.99
2018-08-07T06:21:16.728Z,80.51
2018-08-07T06:21:57.537Z,79.66
2018-08-07T06:22:38.330Z,79.96
2018-08-07T06:23:19.152Z,79.76
2018-08-07T06:23:59.887Z,80.6
2018-08-07T06:24:40.655Z,81.18
2018-08-07T06:25:21.471Z,81.67
2018-08-07T06:26:02.215Z,80.64
2018-08-07T06:26:42.939Z,80.83
2018-08-07T06:27:23.694Z,79.8
2018-08-07T06:28:04.410Z,80.1
2018-08-07T06:28:45.351Z,80.83
2018-08-07T06:29:26.041Z,80.54
2018-08-07T06:30:06.785Z,80.44
2018-08-07T06:30:47.584Z,80.64
2018-08-07T06:31:28.432Z,80.19
2018-08-07T06:32:09.230Z,79.9
2018-08-07T06:32:49.960Z,80.29
2018-08-07T06:33:30.763Z,79.51
2018-08-07T06:34:11.512Z,79.84
2018-08-07T06:34:52.370Z,79.35
2018-08-07T06:35:33.184Z,79.9
2018-08-07T06:36:14.069Z,80.39
2018-08-07T06:36:54.819Z,79.74
2018-08-07T06:37:35.559Z,80.04
2018-08-07T06:38:16.368Z,79.9
2018-08-07T06:38:57.202Z,79.45
2018-08-07T06:39:37.942Z,79.06
2018-08-07T06:40:18.671Z,79.1
2018-08-07T06:40:59.460Z,78.71
2018-08-07T06:41:40.269Z,78.13
2018-08-07T06:42:20.986Z,78.06
2018-08-07T06:43:01.784Z,77.97
2018-08-07T06:43:42.554Z,77.77
2018-08-07T06:44:23.364Z,77.42
2018-08-07T06:45:04.206Z,77.51
2018-08-07T06:45:44.928Z,77.58
2018-08-07T06:46:25.687Z,79.49
2018-08-07T06:47:06.645Z,80.18
2018-08-07T06:47:47.444Z,79.69
2018-08-07T06:48:28.209Z,79.69
2018-08-07T06:49:08.968Z,79.49
2018-08-07T06:49:49.768Z,79.59
2018-08-07T06:50:30.588Z,79.14
2018-08-07T06:51:11.409Z,78.45
2018-08-07T06:51:52.212Z,79.04
2018-08-07T06:52:32.949Z,79.59
2018-08-07T06:53:13.740Z,78.94
2018-08-07T06:53:54.419Z,78.45
2018-08-07T06:54:35.287Z,78
2018-08-07T06:55:16.035Z,78
2018-08-07T06:55:56.751Z,78.49
2018-08-07T06:56:37.536Z,78.94
2018-08-07T06:57:18.351Z,78.88
2018-08-07T06:57:59.203Z,78.3
2018-08-07T06:58:39.943Z,78.1
2018-08-07T06:59:20.645Z,78.45
2018-08-07T07:00:01.424Z,78.39
2018-08-07T07:00:42.176Z,78.85
2018-08-07T07:01:23.045Z,79.04
2018-08-07T07:02:03.980Z,79.63
2018-08-07T07:02:44.870Z,79.14
2018-08-07T07:03:25.508Z,78.69
2018-08-07T07:04:06.279Z,78.49
2018-08-07T07:04:47.108Z,78.3
2018-08-07T07:05:27.858Z,79.27
2018-08-07T07:06:08.725Z,79.08
2018-08-07T07:06:49.439Z,78.59
2018-08-07T07:07:30.343Z,78.2
2018-08-07T07:08:11.229Z,78.14
2018-08-07T07:08:52.066Z,77.75
2018-08-07T07:09:32.908Z,77.26
2018-08-07T07:10:13.631Z,77.1
2018-08-07T07:10:54.344Z,76.51
2018-08-07T07:11:35.105Z,76.65
2018-08-07T07:12:15.915Z,75.77
2018-08-07T07:12:56.657Z,76.06
2018-08-07T07:13:37.421Z,75.77
2018-08-07T07:14:18.278Z,74.88
2018-08-07T07:14:59.207Z,74.98
2018-08-07T07:15:39.965Z,75.48
2018-08-07T07:16:20.683Z,74.92
2018-08-07T07:17:01.415Z,74.92
2018-08-07T07:17:42.244Z,74.92
2018-08-07T07:18:22.979Z,74.63
2018-08-07T07:19:03.724Z,75.22
2018-08-07T07:19:44.456Z,74.92
2018-08-07T07:20:25.288Z,75.18
2018-08-07T07:21:06.069Z,74.79
2018-08-07T07:21:46.818Z,75.83
2018-08-07T07:22:27.612Z,76.32
2018-08-07T07:23:08.476Z,76.87
2018-08-07T07:23:49.366Z,76.97
2018-08-07T07:24:30.143Z,76.67
2018-08-07T07:25:10.908Z,76.71
2018-08-07T07:25:51.708Z,76.16
2018-08-07T07:26:32.504Z,75.77
2018-08-07T07:27:13.356Z,75.87
2018-08-07T07:27:54.177Z,75.77
2018-08-07T07:28:35.044Z,75.18
2018-08-07T07:29:15.745Z,75.48
2018-08-07T07:29:56.517Z,74.79
2018-08-07T07:30:37.382Z,74.79
2018-08-07T07:31:18.124Z,75.54
2018-08-07T07:31:58.855Z,76.42
2018-08-07T07:32:39.569Z,76.38
2018-08-07T07:33:20.329Z,77.32
2018-08-07T07:34:01.149Z,77.12
2018-08-07T07:34:41.977Z,78.49
2018-08-07T07:35:22.698Z,78.69
2018-08-07T07:36:03.540Z,79.24
2018-08-07T07:36:44.335Z,79.43
2018-08-07T07:37:25.197Z,78.94
2018-08-07T07:38:05.895Z,78.69
2018-08-07T07:38:46.745Z,78.23
2018-08-07T07:39:27.514Z,78.14
2018-08-07T07:40:08.293Z,77.06
2018-08-07T07:40:49.188Z,77.26
2018-08-07T07:41:29.837Z,77.55
2018-08-07T07:42:10.634Z,76.87
2018-08-07T07:42:51.420Z,77.16
2018-08-07T07:43:32.273Z,78.1
2018-08-07T07:44:13.087Z,77.42
2018-08-07T07:44:53.851Z,77.91
2018-08-07T07:45:34.583Z,78.98
2018-08-07T07:46:15.386Z,78.88
2018-08-07T07:46:56.303Z,78.69
2018-08-07T07:47:37.008Z,78.69
2018-08-07T07:48:17.770Z,79.53
2018-08-07T07:48:59.135Z,80.35
2018-08-07T07:49:39.970Z,79.86
2018-08-07T07:50:20.769Z,79.37
2018-08-07T07:51:01.482Z,79.27
2018-08-07T07:51:42.330Z,79.37
2018-08-07T07:52:23.111Z,79.08
2018-08-07T07:53:03.977Z,80.25
2018-08-07T07:53:44.745Z,79.27
2018-08-07T07:54:25.503Z,80.15
2018-08-07T07:55:06.297Z,80.44
2018-08-07T07:55:47.077Z,80.25
2018-08-07T07:56:27.848Z,79.76
2018-08-07T07:57:08.590Z,79.51
2018-08-07T07:57:49.449Z,79.9
2018-08-07T07:58:30.333Z,79.66
2018-08-07T07:59:11.175Z,81.58
2018-08-07T07:59:51.888Z,80.9
2018-08-07T08:00:32.635Z,80.35
2018-08-07T08:01:13.366Z,80.25
2018-08-07T08:01:54.158Z,79.76
2018-08-07T08:02:35.047Z,79.66
2018-08-07T08:03:15.862Z,79.41
2018-08-07T08:03:56.644Z,80.29
2018-08-07T08:04:37.357Z,80.15
2018-08-07T08:05:18.199Z,79.96
2018-08-07T08:05:58.975Z,79.8
2018-08-07T08:06:39.685Z,80.25
2018-08-07T08:07:20.467Z,80.83
2018-08-07T08:08:01.233Z,81.29
2018-08-07T08:08:42.042Z,81.43
2018-08-07T08:09:22.910Z,80.64
2018-08-07T08:10:03.733Z,80.15
2018-08-07T08:10:44.464Z,81.13
2018-08-07T08:11:25.237Z,80.83
2018-08-07T08:12:05.966Z,80.25
2018-08-07T08:12:46.839Z,80.25
2018-08-07T08:13:27.647Z,80.05
2018-08-07T08:14:08.382Z,79.76
2018-08-07T08:14:49.203Z,79.76
2018-08-07T08:15:30.019Z,79.86
2018-08-07T08:16:10.836Z,79.86
2018-08-07T08:16:51.611Z,79.76
2018-08-07T08:17:32.335Z,79.57
2018-08-07T08:18:13.089Z,79.51
2018-08-07T08:18:53.901Z,79.21
2018-08-07T08:19:34.683Z,79.57
2018-08-07T08:20:15.534Z,79.51
2018-08-07T08:20:56.443Z,79.51
2018-08-07T08:21:37.151Z,80.1
2018-08-07T08:22:18.009Z,80
2018-08-07T08:22:58.804Z,79.9
2018-08-07T08:23:39.592Z,79.21
2018-08-07T08:24:20.303Z,78.63
2018-08-07T08:25:00.997Z,78.69
2018-08-07T08:25:41.827Z,79.17
2018-08-07T08:26:22.618Z,79.47
2018-08-07T08:27:03.493Z,79.86
2018-08-07T08:27:44.289Z,79.76
2018-08-07T08:28:25.087Z,79.57
2018-08-07T08:29:06.028Z,79.57
2018-08-07T08:29:46.804Z,79.57
2018-08-07T08:30:27.512Z,79.57
2018-08-07T08:31:08.368Z,80.41
2018-08-07T08:31:49.173Z,80.9
2018-08-07T08:32:29.874Z,81.48
2018-08-07T08:33:10.675Z,80.9
2018-08-07T08:33:51.386Z,80.8
2018-08-07T08:34:32.221Z,81.09
2018-08-07T08:35:13.141Z,80.8
2018-08-07T08:35:53.879Z,80.05
2018-08-07T08:36:34.687Z,80.15
2018-08-07T08:37:15.419Z,80.54
2018-08-07T08:37:56.191Z,80.25
2018-08-07T08:38:36.978Z,79.66
2018-08-07T08:39:17.841Z,80.15
2018-08-07T08:39:58.634Z,80.15
2018-08-07T08:40:39.402Z,80.05
2018-08-07T08:41:20.254Z,79.96
2018-08-07T08:42:01.090Z,79.76
2018-08-07T08:42:41.938Z,80.64
2018-08-07T08:43:22.644Z,79.96
2018-08-07T08:44:03.393Z,79.76
2018-08-07T08:44:44.128Z,80.83
2018-08-07T08:45:24.916Z,80.99
2018-08-07T08:46:05.811Z,81.43
2018-08-07T08:46:46.690Z,82.07
2018-08-07T08:47:27.477Z,81.68
2018-08-07T08:48:08.206Z,81.58